Terminal Aerodrome Forecast
Issued by NWS

Home | Current Version | Previous Version | Text Only | Print | Product List | Glossary Off
Versions: 1 2 3 4 5 6 7 8 9 10 11 12 13 14 15 16

763
FTUS43 KBIS 072141 AAA
TAFJMS
TAF AMD
KJMS 072141Z 0722/0818 30033G45KT 1/4SM -SN BLSN FZFG VV013
     FM080200 31024G34KT 3SM BLSN VCSH OVC015
     FM080800 31017G26KT P6SM BKN035
     FM081300 31016G24KT P6SM BKN015=

USA.gov is the U.S. government's official web portal to all federal, state and local government web resources and services.